Time;durP1;ratioP1;P1;durP2;ratioP2;P2;SDS_P1;SDS_P2;PMS_P1;PMS_P2;Temp;Humidity;BMP_temperature;BMP_pressure;BME280_temperature;BME280_humidity;BME280_pressure;Samples;Min_cycle;Max_cycle;Signal;HPM_P1;HPM_P2
2021/06/14 00:00:44;;;;;;;8.15;4.20;;;14.70;98.00;;;;;;5071455;28;20112;-75
2021/06/14 00:03:10;;;;;;;9.00;4.40;;;14.60;99.10;;;;;;5070644;28;20044;-75
2021/06/14 00:05:40;;;;;;;8.13;4.43;;;14.60;98.40;;;;;;5072634;28;20349;-75
2021/06/14 00:08:18;;;;;;;8.10;4.20;;;14.60;98.20;;;;;;5070780;28;20040;-75
2021/06/14 00:10:45;;;;;;;8.20;4.40;;;14.60;98.50;;;;;;5072156;28;20104;-75
2021/06/14 00:13:13;;;;;;;7.88;4.55;;;14.50;98.20;;;;;;5071099;28;20016;-75
2021/06/14 00:15:41;;;;;;;7.57;4.50;;;14.50;98.30;;;;;;5068914;28;20518;-75
2021/06/14 00:18:07;;;;;;;7.95;4.35;;;14.50;99.10;;;;;;5073275;28;20446;-75
2021/06/14 00:20:35;;;;;;;7.97;4.30;;;14.50;99.00;;;;;;5070787;28;20044;-75
2021/06/14 00:23:01;;;;;;;9.00;4.40;;;14.40;98.00;;;;;;5073901;28;20094;-74
2021/06/14 00:25:28;;;;;;;8.68;4.15;;;14.40;98.80;;;;;;5058576;28;20032;-75
2021/06/14 00:27:54;;;;;;;7.95;4.22;;;14.40;97.80;;;;;;5066092;28;20028;-75
2021/06/14 00:30:30;;;;;;;8.45;4.30;;;14.30;98.80;;;;;;5089337;28;20026;-75
2021/06/14 00:32:58;;;;;;;8.98;4.22;;;14.30;97.80;;;;;;5084363;28;20056;-75
2021/06/14 00:35:24;;;;;;;9.68;4.18;;;14.20;98.80;;;;;;5073784;28;20039;-75
2021/06/14 00:37:52;;;;;;;8.30;4.18;;;14.20;99.10;;;;;;5058657;28;20040;-75
2021/06/14 00:40:18;;;;;;;8.75;3.90;;;14.20;98.20;;;;;;5070420;28;20025;-75
2021/06/14 00:42:44;;;;;;;7.28;4.22;;;14.20;98.40;;;;;;5070094;28;20372;-75
2021/06/14 00:45:14;;;;;;;8.30;3.85;;;14.10;98.80;;;;;;5074900;28;20477;-75
2021/06/14 00:47:46;;;;;;;9.20;4.10;;;14.10;99.80;;;;;;5073360;28;20059;-76
2021/06/14 00:50:12;;;;;;;7.67;3.83;;;14.10;99.10;;;;;;5070332;28;20048;-76
2021/06/14 00:52:38;;;;;;;9.45;4.40;;;14.10;99.60;;;;;;5074598;28;20021;-75
2021/06/14 00:55:05;;;;;;;8.68;3.88;;;14.10;99.80;;;;;;5070957;28;20092;-75
2021/06/14 00:57:33;;;;;;;7.72;4.13;;;14.10;98.90;;;;;;5086116;28;20460;-75
2021/06/14 00:59:59;;;;;;;8.82;3.78;;;14.10;99.90;;;;;;5056439;28;20078;-74
2021/06/14 01:02:27;;;;;;;10.02;4.22;;;14.00;99.10;;;;;;5067637;28;20537;-75
2021/06/14 01:04:55;;;;;;;7.53;4.20;;;14.00;98.60;;;;;;5066147;28;20430;-75
2021/06/14 01:07:23;;;;;;;8.20;3.92;;;14.00;99.80;;;;;;5072210;28;20085;-75
2021/06/14 01:09:51;;;;;;;7.38;3.92;;;14.00;99.10;;;;;;5069339;28;20569;-75
2021/06/14 01:12:17;;;;;;;8.45;4.10;;;13.90;99.80;;;;;;5068124;28;20046;-75
2021/06/14 01:15:00;;;;;;;7.38;3.65;;;13.90;99.10;;;;;;5067971;28;20075;-75
2021/06/14 01:17:53;;;;;;;8.90;4.07;;;13.90;99.90;;;;;;5069948;28;20050;-75
2021/06/14 01:20:34;;;;;;;8.13;4.18;;;13.90;99.60;;;;;;5065000;28;20033;-75
2021/06/14 01:23:21;;;;;;;9.43;4.20;;;13.90;99.70;;;;;;5071985;28;20082;-75
2021/06/14 01:26:01;;;;;;;8.52;4.13;;;13.90;99.90;;;;;;5068570;28;20101;-75
2021/06/14 01:28:29;;;;;;;7.10;3.92;;;13.80;99.90;;;;;;5060466;28;20356;-75
2021/06/14 01:30:55;;;;;;;8.02;3.80;;;13.80;99.60;;;;;;5070659;28;20066;-75
2021/06/14 01:33:25;;;;;;;11.88;4.30;;;13.70;99.70;;;;;;5056673;28;20453;-75
2021/06/14 01:35:54;;;;;;;7.30;3.88;;;13.80;99.80;;;;;;5068334;28;20028;-75
2021/06/14 01:38:22;;;;;;;8.07;3.75;;;13.80;99.20;;;;;;5059488;28;20035;-75
2021/06/14 01:40:52;;;;;;;6.65;3.95;;;13.70;99.90;;;;;;5070814;28;20044;-75
2021/06/14 01:43:19;;;;;;;8.45;3.80;;;13.70;99.90;;;;;;5069239;28;20028;-75
2021/06/14 01:45:51;;;;;;;9.15;4.03;;;13.70;99.90;;;;;;5055809;28;20036;-75
2021/06/14 01:48:16;;;;;;;6.65;3.55;;;13.60;99.90;;;;;;5049387;28;20039;-75
2021/06/14 01:50:42;;;;;;;7.22;4.07;;;13.60;99.90;;;;;;5065441;28;20112;-75
2021/06/14 01:53:10;;;;;;;7.05;3.83;;;13.60;99.90;;;;;;5045016;28;20088;-75
2021/06/14 01:55:40;;;;;;;7.65;3.63;;;13.60;99.90;;;;;;5069328;28;20048;-75
2021/06/14 01:58:06;;;;;;;7.68;4.00;;;13.60;99.90;;;;;;5075680;28;20085;-75
2021/06/14 02:00:34;;;;;;;8.77;4.00;;;13.60;99.90;;;;;;5087513;28;20037;-75
2021/06/14 02:03:00;;;;;;;6.75;3.60;;;13.50;99.90;;;;;;5071217;28;20500;-76
2021/06/14 02:05:28;;;;;;;8.63;3.97;;;13.50;99.90;;;;;;5070386;28;20060;-75
2021/06/14 02:07:56;;;;;;;7.18;3.40;;;13.60;99.90;;;;;;5056125;28;20025;-75
2021/06/14 02:10:22;;;;;;;7.00;3.80;;;13.50;99.90;;;;;;5074428;28;20028;-75
2021/06/14 02:12:50;;;;;;;7.38;4.05;;;13.50;99.90;;;;;;5076751;28;20036;-75
2021/06/14 02:15:19;;;;;;;7.82;3.70;;;13.50;99.90;;;;;;5069298;28;20070;-75
2021/06/14 02:17:47;;;;;;;10.27;4.05;;;13.40;99.90;;;;;;5067432;28;20033;-75
2021/06/14 02:20:13;;;;;;;7.75;3.70;;;13.40;99.90;;;;;;5078538;28;20382;-75
2021/06/14 02:22:44;;;;;;;8.43;4.10;;;13.40;99.90;;;;;;5075287;28;20040;-75
2021/06/14 02:25:13;;;;;;;7.07;3.80;;;13.40;99.90;;;;;;5071226;28;20021;-75
2021/06/14 02:27:41;;;;;;;7.50;4.13;;;13.30;99.90;;;;;;5073017;28;20024;-75
2021/06/14 02:30:14;;;;;;;8.20;3.70;;;13.30;99.90;;;;;;5074197;28;20020;-75
2021/06/14 02:32:45;;;;;;;7.95;4.00;;;13.30;99.90;;;;;;5073633;28;20031;-75
2021/06/14 02:35:13;;;;;;;7.82;3.60;;;13.30;99.90;;;;;;5072180;28;20054;-75
2021/06/14 02:37:45;;;;;;;10.05;4.43;;;13.30;99.90;;;;;;5072210;28;20110;-75
2021/06/14 02:40:14;;;;;;;7.32;3.80;;;13.20;99.90;;;;;;5062055;28;20361;-75
2021/06/14 02:42:39;;;;;;;8.75;4.35;;;13.20;99.90;;;;;;5072409;28;20572;-75
2021/06/14 02:45:09;;;;;;;8.48;4.05;;;13.20;99.90;;;;;;5068329;28;20075;-75
2021/06/14 02:47:37;;;;;;;9.77;4.32;;;13.20;99.90;;;;;;5075873;28;20035;-75
2021/06/14 02:50:08;;;;;;;8.70;3.95;;;13.20;99.90;;;;;;5069187;28;20032;-75
2021/06/14 02:52:37;;;;;;;10.73;3.87;;;13.20;99.90;;;;;;5074282;28;20039;-75
2021/06/14 02:55:06;;;;;;;9.02;4.00;;;13.10;99.90;;;;;;5071393;28;20044;-75
2021/06/14 02:57:34;;;;;;;10.15;3.85;;;13.10;99.90;;;;;;5071340;28;20032;-75
2021/06/14 03:00:00;;;;;;;10.63;3.70;;;13.10;99.90;;;;;;5070016;28;20028;-75
2021/06/14 03:02:25;;;;;;;9.00;4.13;;;13.10;99.90;;;;;;5073402;28;20044;-75
2021/06/14 03:04:51;;;;;;;10.18;4.13;;;13.10;99.90;;;;;;5071362;28;20116;-75
2021/06/14 03:07:23;;;;;;;7.82;3.90;;;13.00;99.90;;;;;;5070852;28;20016;-76
2021/06/14 03:09:49;;;;;;;8.43;4.00;;;13.00;99.90;;;;;;5059252;28;20594;-76
2021/06/14 03:12:16;;;;;;;6.55;3.80;;;13.00;99.90;;;;;;5069631;28;20119;-75
2021/06/14 03:14:46;;;;;;;8.77;4.00;;;13.00;99.90;;;;;;5090610;28;20060;-75
2021/06/14 03:17:12;;;;;;;8.70;4.20;;;13.00;99.90;;;;;;5087411;28;20032;-75
2021/06/14 03:19:38;;;;;;;8.27;3.70;;;13.00;99.90;;;;;;5059784;28;20040;-75
2021/06/14 03:22:05;;;;;;;9.30;4.05;;;12.90;99.90;;;;;;5069887;28;20395;-74
2021/06/14 03:24:31;;;;;;;7.60;3.40;;;13.00;99.90;;;;;;5056094;28;20091;-75
2021/06/14 03:26:59;;;;;;;8.52;3.83;;;12.90;99.90;;;;;;5076696;28;20448;-75
2021/06/14 03:29:25;;;;;;;9.63;4.28;;;12.90;99.90;;;;;;5071217;28;20025;-75
2021/06/14 03:31:53;;;;;;;8.55;3.90;;;13.00;99.90;;;;;;5069287;28;20023;-75
2021/06/14 03:34:19;;;;;;;7.45;3.80;;;12.90;99.90;;;;;;5071000;28;20040;-75
2021/06/14 03:36:49;;;;;;;7.38;3.63;;;12.90;99.90;;;;;;5071378;28;20031;-75
2021/06/14 03:39:18;;;;;;;10.15;4.15;;;12.90;99.90;;;;;;5070203;28;20024;-76
2021/06/14 03:41:45;;;;;;;7.18;3.75;;;12.90;99.90;;;;;;5069407;28;20028;-75
2021/06/14 03:44:11;;;;;;;9.75;4.13;;;12.90;99.90;;;;;;5075168;28;20102;-75
2021/06/14 03:46:41;;;;;;;10.35;4.18;;;12.90;99.90;;;;;;5073946;28;20032;-75
2021/06/14 03:49:06;;;;;;;8.70;4.10;;;12.90;99.90;;;;;;5071179;28;20078;-75
2021/06/14 03:51:32;;;;;;;9.52;3.95;;;12.90;99.90;;;;;;5072480;28;20385;-74
2021/06/14 03:54:01;;;;;;;9.65;3.90;;;12.90;99.90;;;;;;5074112;28;20063;-75
2021/06/14 03:56:31;;;;;;;8.48;4.18;;;12.90;99.90;;;;;;5072164;28;20031;-76
2021/06/14 03:58:57;;;;;;;7.45;3.83;;;12.90;99.90;;;;;;5068550;28;20071;-75
2021/06/14 04:01:25;;;;;;;8.13;3.80;;;13.00;99.90;;;;;;5074214;28;20052;-76
2021/06/14 04:06:20;;;;;;;8.98;4.10;;;13.00;99.90;;;;;;5071707;28;20115;-75
2021/06/14 04:08:48;;;;;;;8.40;3.90;;;13.00;99.90;;;;;;5073751;28;20161;-75
2021/06/14 04:11:16;;;;;;;8.40;3.60;;;13.00;99.90;;;;;;5070263;28;20025;-75
2021/06/14 04:13:44;;;;;;;7.70;3.70;;;13.00;99.90;;;;;;5072796;28;20442;-75
2021/06/14 04:16:12;;;;;;;9.15;4.30;;;13.00;99.90;;;;;;5057572;28;20033;-75
2021/06/14 04:18:37;;;;;;;7.25;4.13;;;13.10;99.90;;;;;;5068197;28;20146;-75
2021/06/14 04:21:06;;;;;;;7.60;3.63;;;13.10;99.90;;;;;;5068938;28;20116;-75
2021/06/14 04:23:34;;;;;;;8.68;4.18;;;13.10;99.90;;;;;;5073798;28;20041;-75
2021/06/14 04:26:00;;;;;;;7.85;3.90;;;13.10;99.90;;;;;;5075630;28;20047;-75
2021/06/14 04:28:28;;;;;;;7.30;4.13;;;13.10;99.90;;;;;;5070990;28;20033;-75
2021/06/14 04:30:53;;;;;;;7.93;4.20;;;13.10;99.90;;;;;;5069924;28;20086;-75
2021/06/14 04:33:21;;;;;;;6.72;3.95;;;13.10;99.90;;;;;;5075365;28;20024;-76
2021/06/14 04:35:47;;;;;;;7.50;4.35;;;13.10;99.90;;;;;;5071354;28;20107;-76
2021/06/14 04:38:12;;;;;;;8.95;3.65;;;13.20;99.90;;;;;;5068460;28;20453;-76
2021/06/14 04:40:38;;;;;;;8.32;3.83;;;13.20;99.90;;;;;;5071949;28;20056;-75
2021/06/14 04:43:06;;;;;;;8.93;4.63;;;13.20;99.90;;;;;;5057865;28;20513;-75
2021/06/14 04:45:32;;;;;;;8.40;3.92;;;13.20;99.90;;;;;;5067864;28;20110;-75
2021/06/14 04:47:57;;;;;;;7.85;4.38;;;13.30;99.90;;;;;;5067704;28;20099;-75
2021/06/14 04:50:23;;;;;;;7.90;4.05;;;13.30;99.90;;;;;;5068365;28;20439;-75
2021/06/14 04:52:48;;;;;;;7.82;4.20;;;13.30;99.90;;;;;;5070503;28;20493;-75
2021/06/14 04:55:14;;;;;;;10.05;4.20;;;13.30;99.90;;;;;;5068870;28;20028;-75
2021/06/14 04:57:40;;;;;;;7.65;4.47;;;13.30;99.90;;;;;;5070899;28;20024;-75
2021/06/14 05:00:06;;;;;;;9.65;4.22;;;13.40;99.90;;;;;;5065387;28;20050;-75
2021/06/14 05:02:32;;;;;;;9.15;4.03;;;13.40;99.90;;;;;;5071363;28;20598;-76
2021/06/14 05:04:58;;;;;;;9.40;4.20;;;13.40;99.90;;;;;;5066698;28;20028;-75
2021/06/14 05:07:23;;;;;;;6.97;4.10;;;13.40;99.90;;;;;;5052441;28;20045;-75
2021/06/14 05:09:50;;;;;;;6.93;3.92;;;13.50;99.90;;;;;;5066603;28;20554;-75
2021/06/14 05:12:15;;;;;;;8.43;4.03;;;13.50;99.90;;;;;;5067860;28;20020;-75
2021/06/14 05:14:43;;;;;;;9.73;4.70;;;13.60;99.90;;;;;;5065471;28;20086;-75
2021/06/14 05:17:09;;;;;;;7.10;4.05;;;13.60;99.90;;;;;;5073512;28;20028;-75
2021/06/14 05:19:35;;;;;;;7.00;4.10;;;13.70;99.90;;;;;;5062926;28;20082;-75
2021/06/14 05:22:01;;;;;;;7.85;4.18;;;13.70;99.90;;;;;;5060999;28;20032;-75
2021/06/14 05:24:30;;;;;;;8.25;4.50;;;13.80;99.90;;;;;;5066067;28;20098;-75
2021/06/14 05:26:55;;;;;;;8.77;4.45;;;13.80;99.90;;;;;;5061883;28;20090;-75
2021/06/14 05:29:24;;;;;;;8.80;4.68;;;13.90;99.90;;;;;;5054491;28;20024;-75
2021/06/14 05:31:52;;;;;;;8.88;4.60;;;13.90;99.90;;;;;;5053653;28;20462;-75
2021/06/14 05:34:20;;;;;;;8.60;4.00;;;13.90;99.90;;;;;;5061723;28;20042;-75
2021/06/14 05:36:46;;;;;;;6.80;3.95;;;14.00;99.90;;;;;;5068947;28;20542;-75
2021/06/14 05:39:12;;;;;;;8.68;4.20;;;14.00;99.90;;;;;;5058537;28;20041;-75
2021/06/14 05:41:37;;;;;;;7.97;4.50;;;14.10;99.90;;;;;;5039887;28;20029;-75
2021/06/14 05:44:03;;;;;;;10.73;4.60;;;14.10;99.90;;;;;;5057056;28;20028;-75
2021/06/14 05:46:29;;;;;;;9.35;4.05;;;14.20;99.90;;;;;;5058337;28;20055;-75
2021/06/14 05:48:55;;;;;;;9.13;4.00;;;14.20;99.90;;;;;;5054871;28;20025;-75
2021/06/14 05:51:21;;;;;;;8.48;4.53;;;14.20;99.90;;;;;;5055573;28;20043;-72
2021/06/14 05:53:49;;;;;;;8.43;4.18;;;14.30;99.90;;;;;;5046699;28;20017;-71
2021/06/14 05:56:16;;;;;;;9.05;4.50;;;14.30;99.90;;;;;;5070040;28;20033;-75
2021/06/14 05:58:41;;;;;;;8.77;4.43;;;14.30;99.90;;;;;;5051003;28;20032;-76
2021/06/14 06:01:07;;;;;;;12.07;4.70;;;14.30;99.90;;;;;;5068415;28;20483;-72
2021/06/14 06:03:33;;;;;;;10.88;6.47;;;14.40;99.90;;;;;;5071258;28;20024;-72
2021/06/14 06:06:01;;;;;;;8.77;3.97;;;14.40;99.90;;;;;;5065862;28;20071;-74
2021/06/14 06:08:27;;;;;;;6.68;3.72;;;14.40;99.90;;;;;;5080998;28;20036;-76
2021/06/14 06:10:53;;;;;;;10.00;4.15;;;14.50;99.90;;;;;;5067157;28;20039;-75
2021/06/14 06:13:20;;;;;;;8.73;4.18;;;14.50;99.90;;;;;;5063205;28;20025;-77
2021/06/14 06:15:48;;;;;;;7.90;4.15;;;14.60;99.90;;;;;;5061190;28;20351;-76
2021/06/14 06:18:14;;;;;;;8.77;4.53;;;14.70;99.90;;;;;;5064014;28;20028;-77
2021/06/14 06:20:42;;;;;;;8.65;4.03;;;14.70;99.90;;;;;;5065700;28;20039;-76
2021/06/14 06:23:08;;;;;;;8.38;4.30;;;14.80;99.90;;;;;;5062633;28;20056;-76
2021/06/14 06:25:34;;;;;;;8.13;3.97;;;14.70;99.90;;;;;;5065029;28;20033;-77
2021/06/14 06:28:02;;;;;;;9.10;4.55;;;14.80;99.90;;;;;;5064420;28;20039;-76
2021/06/14 06:30:28;;;;;;;7.25;4.00;;;14.90;99.90;;;;;;5063114;28;20029;-77
2021/06/14 06:32:56;;;;;;;10.70;4.82;;;14.90;99.90;;;;;;5062713;28;20031;-76
2021/06/14 06:35:24;;;;;;;8.35;3.90;;;15.00;99.90;;;;;;5065323;28;20443;-76
2021/06/14 06:37:52;;;;;;;8.55;4.15;;;15.10;99.90;;;;;;5064368;28;20476;-76
2021/06/14 06:40:20;;;;;;;8.43;3.83;;;15.10;99.90;;;;;;5064401;28;20045;-76
2021/06/14 06:42:48;;;;;;;7.55;4.10;;;15.20;99.90;;;;;;5063706;28;20067;-71
2021/06/14 06:45:14;;;;;;;15.63;10.68;;;15.20;99.90;;;;;;5068441;28;20036;-71
2021/06/14 06:47:40;;;;;;;10.52;5.78;;;15.30;99.90;;;;;;5048871;28;20029;-77
2021/06/14 06:50:08;;;;;;;9.70;4.50;;;15.30;99.90;;;;;;5068630;28;20529;-77
2021/06/14 06:52:35;;;;;;;6.88;4.30;;;15.30;99.90;;;;;;5066193;28;20068;-76
2021/06/14 06:55:03;;;;;;;7.97;4.07;;;15.40;99.90;;;;;;5069514;28;20054;-77
2021/06/14 06:57:31;;;;;;;10.18;4.40;;;15.50;99.90;;;;;;5067266;28;20475;-75
2021/06/14 06:59:56;;;;;;;7.07;4.35;;;15.50;99.90;;;;;;5067973;28;20528;-76
2021/06/14 07:02:25;;;;;;;9.32;3.90;;;15.60;99.90;;;;;;5067283;28;20063;-77
2021/06/14 07:04:51;;;;;;;7.32;3.83;;;15.70;99.90;;;;;;5066842;28;20031;-77
2021/06/14 07:07:19;;;;;;;7.80;3.80;;;15.70;99.90;;;;;;5067782;28;20024;-77
2021/06/14 07:09:47;;;;;;;9.07;4.03;;;15.80;99.90;;;;;;5068339;28;20479;-79
2021/06/14 07:12:13;;;;;;;6.68;3.78;;;15.90;99.90;;;;;;5071448;28;20120;-77
2021/06/14 07:14:38;;;;;;;8.40;3.83;;;15.90;99.90;;;;;;5068739;28;20098;-76
2021/06/14 07:17:04;;;;;;;7.55;3.83;;;16.00;99.90;;;;;;5069145;28;20039;-76
2021/06/14 07:19:36;;;;;;;8.55;3.67;;;16.10;99.90;;;;;;5068330;28;20028;-77
2021/06/14 07:22:04;;;;;;;9.13;3.97;;;16.20;99.90;;;;;;5068363;28;20040;-77
2021/06/14 07:24:32;;;;;;;8.70;4.00;;;16.30;99.90;;;;;;5068864;28;20100;-76
2021/06/14 07:27:00;;;;;;;8.65;3.75;;;16.30;99.90;;;;;;5077772;28;20442;-76
2021/06/14 07:29:28;;;;;;;8.60;4.05;;;16.40;99.90;;;;;;5069894;28;20056;-76
2021/06/14 07:31:57;;;;;;;8.32;3.70;;;16.50;99.90;;;;;;5069506;28;20038;-76
2021/06/14 07:34:25;;;;;;;8.52;3.60;;;16.60;99.90;;;;;;5069506;28;20047;-75
2021/06/14 07:36:52;;;;;;;9.68;3.92;;;16.70;99.90;;;;;;5053745;28;20075;-72
2021/06/14 07:39:17;;;;;;;9.30;5.03;;;16.90;97.90;;;;;;5069037;28;20055;-72
2021/06/14 07:41:45;;;;;;;8.40;3.90;;;17.10;96.70;;;;;;5068714;28;20123;-77
2021/06/14 07:44:11;;;;;;;10.95;6.10;;;17.30;96.90;;;;;;5068198;28;20032;-77
2021/06/14 07:46:37;;;;;;;7.22;4.13;;;17.60;99.90;;;;;;5071071;28;20024;-76
2021/06/14 07:49:02;;;;;;;9.50;3.90;;;17.80;99.90;;;;;;5069848;28;20028;-76
2021/06/14 07:51:28;;;;;;;7.57;3.90;;;18.10;99.20;;;;;;5066776;28;20025;-79
2021/06/14 07:53:53;;;;;;;9.07;3.90;;;18.30;94.30;;;;;;5068161;28;20085;-77
2021/06/14 07:56:20;;;;;;;8.98;4.10;;;18.60;99.90;;;;;;5065205;28;20130;-78
2021/06/14 07:58:47;;;;;;;7.28;3.63;;;18.80;87.40;;;;;;5065940;28;20039;-76
2021/06/14 08:01:13;;;;;;;8.02;3.60;;;18.90;92.40;;;;;;5064095;28;20099;-77
2021/06/14 08:03:39;;;;;;;7.90;4.05;;;19.20;94.20;;;;;;5066694;28;20032;-76
2021/06/14 08:06:05;;;;;;;8.45;3.70;;;19.40;88.50;;;;;;5053292;28;20469;-77
2021/06/14 08:08:31;;;;;;;7.85;4.13;;;19.60;94.10;;;;;;5064034;28;20680;-77
2021/06/14 08:10:57;;;;;;;8.95;3.70;;;19.80;99.90;;;;;;5066075;28;20480;-78
2021/06/14 08:13:23;;;;;;;9.10;3.60;;;20.00;94.20;;;;;;5065178;28;20027;-78
2021/06/14 08:15:48;;;;;;;8.43;3.40;;;20.10;84.70;;;;;;5072019;28;20040;-77
2021/06/14 08:26:17;;;;;;;8.82;3.60;;;20.70;88.90;;;;;;5065175;28;20035;-75
2021/06/14 08:28:45;;;;;;;10.52;4.00;;;20.90;91.00;;;;;;5065447;28;20055;-76
2021/06/14 08:31:13;;;;;;;9.27;3.95;;;21.00;78.60;;;;;;5067687;28;20029;-76
2021/06/14 08:33:41;;;;;;;6.95;3.40;;;21.10;83.10;;;;;;5067995;28;20427;-76
2021/06/14 08:36:06;;;;;;;7.25;3.78;;;21.10;72.20;;;;;;5057733;28;20140;-77
2021/06/14 08:38:32;;;;;;;7.93;3.60;;;21.30;88.10;;;;;;5067010;28;20028;-76
2021/06/14 08:40:58;;;;;;;7.00;3.30;;;21.30;82.90;;;;;;5068762;28;20088;-77
2021/06/14 08:43:27;;;;;;;8.20;3.72;;;21.40;73.30;;;;;;5073003;28;20500;-77
2021/06/14 08:45:52;;;;;;;9.77;3.60;;;21.50;74.70;;;;;;5071454;28;20131;-76
2021/06/14 08:48:18;;;;;;;7.65;3.78;;;21.50;74.10;;;;;;5068591;28;20122;-75
2021/06/14 08:50:44;;;;;;;10.52;3.85;;;21.60;75.70;;;;;;5068477;28;20029;-78
2021/06/14 08:53:12;;;;;;;9.55;4.18;;;21.80;77.90;;;;;;5070329;28;20025;-77
2021/06/14 08:55:42;;;;;;;10.20;4.30;;;21.90;86.50;;;;;;5075608;28;20351;-78
2021/06/14 08:58:10;;;;;;;8.38;3.90;;;22.00;73.10;;;;;;5070370;28;20060;-72
2021/06/14 09:00:36;;;;;;;8.88;4.22;;;22.00;75.70;;;;;;5070880;28;20043;-72
2021/06/14 09:03:02;;;;;;;10.65;7.30;;;22.20;78.60;;;;;;5069142;28;20037;-77
2021/06/14 09:05:27;;;;;;;8.63;4.05;;;22.30;84.40;;;;;;5068258;28;20028;-75
2021/06/14 09:07:55;;;;;;;8.32;3.70;;;22.40;79.60;;;;;;5066080;28;20029;-77
2021/06/14 09:10:27;;;;;;;8.13;3.80;;;22.60;84.60;;;;;;5070885;28;20024;-77
2021/06/14 09:12:53;;;;;;;7.35;4.00;;;22.70;77.60;;;;;;5070734;28;20029;-79
2021/06/14 09:15:25;;;;;;;7.88;3.60;;;22.80;77.60;;;;;;5064851;28;20340;-77
2021/06/14 09:17:56;;;;;;;7.32;3.75;;;22.80;76.50;;;;;;5050594;28;20063;-76
2021/06/14 09:20:23;;;;;;;9.25;3.60;;;22.80;80.10;;;;;;5072200;28;20112;-77
2021/06/14 09:22:51;;;;;;;7.25;3.60;;;22.90;79.30;;;;;;5069915;28;20040;-77
2021/06/14 09:25:17;;;;;;;7.38;3.50;;;23.00;82.50;;;;;;5065489;28;20044;-76
2021/06/14 09:27:45;;;;;;;7.75;3.40;;;23.10;77.40;;;;;;5080536;28;20389;-77
2021/06/14 09:30:16;;;;;;;8.52;3.75;;;23.20;80.40;;;;;;5072539;28;20021;-76
2021/06/14 09:32:50;;;;;;;7.60;3.80;;;23.30;80.60;;;;;;5066841;28;20015;-77
2021/06/14 09:35:16;;;;;;;10.55;3.28;;;23.40;82.60;;;;;;5066796;28;20051;-76
2021/06/14 09:37:42;;;;;;;9.30;3.92;;;23.40;66.50;;;;;;5068304;28;20035;-78
2021/06/14 09:40:08;;;;;;;9.93;3.60;;;23.40;68.60;;;;;;5066876;28;20024;-75
2021/06/14 09:42:38;;;;;;;8.18;3.67;;;23.30;67.50;;;;;;5067592;28;20024;-76
2021/06/14 09:45:09;;;;;;;8.73;3.63;;;23.30;70.70;;;;;;5067626;28;20025;-76
2021/06/14 09:47:37;;;;;;;7.47;3.95;;;23.40;74.30;;;;;;5066579;28;20052;-75
2021/06/14 09:50:07;;;;;;;7.07;3.45;;;23.40;70.10;;;;;;5068139;28;20047;-77
2021/06/14 09:52:33;;;;;;;7.57;3.42;;;23.40;69.40;;;;;;5066301;28;20139;-74
2021/06/14 09:55:15;;;;;;;8.60;3.63;;;23.40;69.80;;;;;;5068063;28;20088;-73
2021/06/14 09:57:40;;;;;;;8.15;3.53;;;23.40;74.10;;;;;;5084200;28;20033;-72
2021/06/14 10:00:11;;;;;;;7.90;3.40;;;23.40;64.60;;;;;;5068655;28;20038;-77
2021/06/14 10:02:36;;;;;;;9.52;3.85;;;23.30;65.50;;;;;;5068483;28;20020;-77
2021/06/14 10:05:13;;;;;;;8.43;3.38;;;23.40;72.50;;;;;;5068194;28;20039;-76
2021/06/14 10:07:45;;;;;;;6.20;3.50;;;23.40;71.10;;;;;;5056605;28;20170;-76
2021/06/14 10:10:20;;;;;;;8.82;3.72;;;23.50;74.70;;;;;;5064498;28;20044;-75
2021/06/14 10:12:50;;;;;;;7.80;3.70;;;23.60;76.50;;;;;;5069150;28;20032;-77
2021/06/14 10:15:16;;;;;;;8.88;3.67;;;23.60;76.20;;;;;;5070537;28;20056;-76
2021/06/14 10:17:42;;;;;;;8.80;3.42;;;23.60;66.10;;;;;;5069752;28;20082;-74
2021/06/14 10:20:07;;;;;;;6.60;3.40;;;23.50;65.90;;;;;;5078743;28;20071;-77
2021/06/14 10:22:33;;;;;;;7.25;3.30;;;23.60;70.70;;;;;;5073393;28;20056;-74
2021/06/14 10:24:59;;;;;;;8.57;3.63;;;23.60;72.30;;;;;;5068591;28;20428;-75
2021/06/14 10:27:25;;;;;;;7.85;3.55;;;23.70;73.00;;;;;;5070304;28;20032;-76
2021/06/14 10:29:51;;;;;;;6.72;3.50;;;23.80;71.40;;;;;;5058490;28;20046;-75
2021/06/14 10:32:17;;;;;;;8.65;3.15;;;23.80;73.60;;;;;;5068451;28;20457;-75
2021/06/14 10:34:44;;;;;;;7.82;3.60;;;23.90;74.00;;;;;;5076491;28;20054;-76
2021/06/14 10:37:09;;;;;;;8.05;3.45;;;24.10;74.20;;;;;;5073663;28;20028;-75
2021/06/14 10:39:41;;;;;;;8.40;3.35;;;24.00;70.90;;;;;;5073140;28;20039;-76
2021/06/14 10:42:07;;;;;;;8.15;3.80;;;24.10;69.80;;;;;;5073615;28;20080;-76
2021/06/14 10:44:33;;;;;;;6.88;3.40;;;24.10;64.50;;;;;;5072841;28;20044;-75
2021/06/14 10:47:00;;;;;;;8.00;3.40;;;24.20;67.90;;;;;;5073070;28;20021;-77
2021/06/14 10:49:28;;;;;;;10.63;4.15;;;24.30;63.80;;;;;;5061612;28;20075;-76
2021/06/14 10:52:01;;;;;;;7.68;3.72;;;24.40;66.80;;;;;;5066870;28;20035;-78
2021/06/14 10:54:36;;;;;;;8.80;3.67;;;24.40;66.90;;;;;;5070193;28;20025;-75
2021/06/14 10:57:03;;;;;;;8.95;3.70;;;24.40;59.00;;;;;;5077358;28;20027;-78
2021/06/14 10:59:36;;;;;;;10.07;3.75;;;24.50;68.00;;;;;;5068347;28;20050;-78
2021/06/14 11:02:07;;;;;;;9.35;3.60;;;24.60;63.60;;;;;;5069765;28;20175;-77
2021/06/14 11:04:35;;;;;;;8.70;4.10;;;24.60;66.00;;;;;;5086475;28;20036;-76
2021/06/14 11:07:01;;;;;;;7.95;3.17;;;24.70;68.00;;;;;;5069874;28;20047;-75
2021/06/14 11:09:57;;;;;;;5.88;3.13;;;24.80;70.50;;;;;;5072110;28;20020;-77
2021/06/14 11:12:28;;;;;;;8.85;3.55;;;25.00;67.20;;;;;;5071729;28;20035;-76
2021/06/14 11:14:54;;;;;;;7.18;3.33;;;24.90;64.00;;;;;;5067340;28;20016;-77
2021/06/14 11:17:34;;;;;;;7.57;3.17;;;25.10;65.60;;;;;;5069442;28;20047;-77
2021/06/14 11:20:00;;;;;;;5.90;3.33;;;25.20;65.60;;;;;;5070079;28;20456;-75
2021/06/14 11:22:38;;;;;;;7.85;3.42;;;25.30;66.30;;;;;;5072199;28;20071;-75
2021/06/14 11:25:40;;;;;;;8.63;3.40;;;25.30;69.60;;;;;;5074429;28;20036;-78
2021/06/14 11:28:07;;;;;;;6.68;3.30;;;25.60;63.90;;;;;;5055720;28;20472;-75
2021/06/14 11:30:34;;;;;;;8.43;3.40;;;25.70;67.20;;;;;;5088922;28;20070;-77
2021/06/14 11:33:00;;;;;;;6.88;3.15;;;25.70;61.80;;;;;;5071711;28;20458;-75
2021/06/14 11:35:28;;;;;;;6.75;3.38;;;25.70;64.00;;;;;;5068848;28;20041;-76
2021/06/14 11:37:54;;;;;;;6.72;3.15;;;25.90;65.70;;;;;;5071086;28;20025;-78
2021/06/14 11:40:35;;;;;;;7.97;3.55;;;26.00;65.40;;;;;;5070534;28;20047;-77
2021/06/14 11:43:11;;;;;;;6.78;3.30;;;26.30;65.90;;;;;;5089418;28;20051;-76
2021/06/14 11:45:44;;;;;;;7.55;3.33;;;26.40;66.50;;;;;;5087384;28;20034;-76
2021/06/14 11:48:41;;;;;;;7.80;3.30;;;26.40;69.10;;;;;;5069333;28;20025;-76
2021/06/14 11:51:18;;;;;;;7.53;3.33;;;26.60;59.20;;;;;;5069995;28;20056;-76
2021/06/14 11:53:57;;;;;;;8.57;3.67;;;26.70;63.80;;;;;;5069623;28;20035;-71
2021/06/14 11:56:27;;;;;;;6.75;3.33;;;26.70;63.60;;;;;;5070242;28;20032;-71
2021/06/14 11:58:56;;;;;;;6.78;3.28;;;26.80;65.10;;;;;;5072250;28;20213;-75
2021/06/14 12:01:26;;;;;;;7.22;3.00;;;26.90;63.30;;;;;;5071937;28;20021;-76
2021/06/14 12:04:01;;;;;;;9.50;3.38;;;26.90;63.90;;;;;;5071044;28;20107;-76
2021/06/14 12:06:29;;;;;;;9.00;3.28;;;26.90;63.20;;;;;;5067989;28;20549;-77
2021/06/14 12:09:15;;;;;;;8.18;3.35;;;27.10;66.40;;;;;;4706244;28;10001385;-75
2021/06/14 12:11:42;;;;;;;8.82;3.25;;;27.20;56.80;;;;;;5052963;28;20031;-77
2021/06/14 12:14:17;;;;;;;7.28;3.30;;;27.10;61.10;;;;;;5068129;28;20081;-77
2021/06/14 12:16:47;;;;;;;9.70;3.85;;;27.20;61.20;;;;;;5065136;28;20111;-76
2021/06/14 12:19:13;;;;;;;7.68;3.70;;;27.20;56.50;;;;;;5067064;28;20032;-78
2021/06/14 12:21:41;;;;;;;8.93;3.30;;;27.20;60.70;;;;;;5065887;28;20028;-77
2021/06/14 12:24:19;;;;;;;8.98;3.53;;;27.30;62.70;;;;;;5066839;28;20371;-79
2021/06/14 12:26:44;;;;;;;6.55;3.15;;;27.50;55.50;;;;;;5059252;28;20156;-77
2021/06/14 12:29:19;;;;;;;7.38;3.13;;;27.40;57.00;;;;;;5069138;28;20493;-77
2021/06/14 12:31:58;;;;;;;6.43;3.13;;;27.30;55.90;;;;;;5066300;28;20047;-76
2021/06/14 12:34:29;;;;;;;9.38;3.70;;;27.20;58.00;;;;;;5056772;28;20679;-77
2021/06/14 12:37:07;;;;;;;7.72;3.75;;;27.40;62.50;;;;;;5070852;28;20528;-79
2021/06/14 12:39:33;;;;;;;8.05;3.10;;;27.60;61.90;;;;;;5068621;28;20059;-76
2021/06/14 12:41:59;;;;;;;8.55;3.63;;;27.50;58.40;;;;;;5063729;28;20021;-78
2021/06/14 12:44:25;;;;;;;8.52;3.40;;;27.50;59.20;;;;;;5066885;28;20025;-78
2021/06/14 12:46:51;;;;;;;7.50;3.40;;;27.60;61.60;;;;;;5054080;28;20031;-84
2021/06/14 12:49:31;;;;;;;7.25;3.13;;;27.60;60.40;;;;;;5081703;28;20103;-77
2021/06/14 12:51:59;;;;;;;8.13;3.47;;;27.70;58.30;;;;;;5066952;28;20031;-80
2021/06/14 12:54:25;;;;;;;6.75;2.97;;;27.70;54.80;;;;;;5066845;28;20016;-77
2021/06/14 12:56:54;;;;;;;5.97;3.00;;;27.60;57.60;;;;;;5070207;28;20028;-76
2021/06/14 12:59:23;;;;;;;9.27;3.30;;;27.80;60.70;;;;;;5065212;28;20063;-79
2021/06/14 13:01:50;;;;;;;7.97;3.38;;;27.80;61.20;;;;;;4718285;28;10000075;-72